• Join FlightAware (Why Join?)
  • Login
  • US Flag 
11:39PM EDT


 

Airport Tracker/Info


-or-


 

Live Flight TrackerFlight Track Log ✈ DAL1438 ✈ 25-Oct-2013 ✈ KATL - KDCA

Flight Track Log - Related Links

Times and Time Zones

All times are in EDT time to prevent confusion due to time zone crossing. See the DAL1438 flight status page for this flight to view local times or setup timezone preferences in your user account.

Time Position Orientation Groundspeed Altitude Reporting Facility
EDT Latitude Longitude Course Direction KTS MPH feet Rate Location/Type
10:07PM 33.6286 -84.4928 73° East 449 517 3,200  Level Atlanta Center
10:08PM 33.5864 -84.5675 236° Southwest 307 353 6,800 3,300 Climbing Atlanta Center
10:09PM 33.8820 -84.1140 54° Northeast  Level Estimated
10:09PM 33.5219 -84.5322 155° Southeast 290 334 9,900  Level Atlanta Center
10:10PM 33.9636 -84.0090 48° Northeast  Level Estimated
10:10PM 33.5472 -84.4350 73° East 257 296 11,800  Level Atlanta Center
10:11PM 34.0452 -83.9038 53° Northeast  Level Estimated
10:11PM 33.6039 -84.3231 59° Northeast 307 353 13,900  Level Atlanta Center
10:12PM 34.0807 -83.7663 73° East  Level FlightAware Approximate
10:12PM 33.6647 -84.2086 57° Northeast 362 417 16,500  Level Atlanta Center
10:13PM 34.1161 -83.6286 73° East  Level FlightAware Approximate
10:13PM 33.7317 -84.0861 57° Northeast 417 480 18,500  Level Atlanta Center
10:14PM 33.8047 -83.9489 57° Northeast 433 498 20,600 2,100 Climbing Atlanta Center
10:15PM 33.8733 -83.8186 58° Northeast 445 512 22,700 1,200 Climbing Atlanta Center
10:16PM 33.9461 -83.6883 56° Northeast 460 529 23,000 300 Climbing Atlanta Center
10:17PM 34.0250 -83.5625 53° Northeast 460 529 23,400 1,080 Climbing Atlanta Center
10:18PM 34.1039 -83.4367 53° Northeast 471 542 25,200 1,800 Climbing Atlanta Center
10:19PM 34.1844 -83.3081 53° Northeast 471 542 27,100 1,800 Climbing Atlanta Center
10:20PM 34.2672 -83.1792 52° Northeast 478 550 28,900 1,860 Climbing Atlanta Center
10:21PM 34.3456 -83.0525 53° Northeast 478 550 30,900 1,020 Climbing Atlanta Center
10:22PM 34.4258 -82.9233 53° Northeast 478 550 31,000  Climbing Atlanta Center
10:23PM 34.5039 -82.7936 54° Northeast 484 557 31,000  Level Atlanta Center
10:24PM 34.5797 -82.6639 55° Northeast 475 547 31,000  Level Atlanta Center
10:25PM 34.6556 -82.5539 50° Northeast 475 547 31,000  Level Atlanta Center
10:26PM 34.7333 -82.4236 54° Northeast 470 541 31,000  Level Atlanta Center
10:27PM 34.8108 -82.2958 54° Northeast 475 547 31,000  Level Atlanta Center
10:28PM 34.8922 -82.1597 54° Northeast 475 547 31,000  Level Atlanta Center
10:29PM 34.9736 -82.0286 53° Northeast 484 557 31,000  Level Atlanta Center
10:30PM 35.0486 -81.9000 55° Northeast 479 551 31,000  Level Atlanta Center
10:31PM 35.1233 -81.7611 57° Northeast 479 551 31,000  Level Atlanta Center
10:32PM 35.1997 -81.6089 58° Northeast 479 551 31,000  Level Atlanta Center
10:33PM 35.2742 -81.4694 57° Northeast 484 557 31,000  Level Atlanta Center
10:34PM 35.3464 -81.3322 57° Northeast 484 557 31,000  Level Atlanta Center
10:35PM 35.4161 -81.1922 59° Northeast 484 557 31,000  Level Atlanta Center
10:36PM 35.4900 -81.0494 58° Northeast 489 563 31,000  Level Atlanta Center
10:37PM 35.5636 -80.9114 57° Northeast 484 557 31,000  Level Atlanta Center
10:39PM 35.6939 -80.6636 57° Northeast 522 601 31,000  Level Washington Center
10:40PM 35.7667 -80.5197 58° Northeast 496 571 31,000  Level Washington Center
10:41PM 35.8369 -80.3808 58° Northeast 478 550 31,000  Level Washington Center
10:42PM 35.9092 -80.2389 58° Northeast 478 550 31,000  Level Washington Center
10:43PM 35.9794 -80.0992 58° Northeast 477 549 31,000  Level Washington Center
10:44PM 36.0553 -79.9622 56° Northeast 477 549 31,000  Level Washington Center
10:45PM 36.1311 -79.8278 55° Northeast 477 549 31,000  Level Washington Center
10:46PM 36.2047 -79.6925 56° Northeast 477 549 31,000  Level Washington Center
10:47PM 36.2736 -79.5700 55° Northeast 477 549 31,000  Level Washington Center
10:48PM 36.3619 -79.4172 54° Northeast 487 560 31,000  Level Washington Center
10:49PM 36.4372 -79.2789 56° Northeast 487 560 31,000  Level Washington Center
10:50PM 36.5058 -79.1553 55° Northeast 482 555 31,000 -420 Level Washington Center
10:51PM 36.5933 -79.0094 53° Northeast 477 549 30,200 -3,060 Descending Washington Center
10:52PM 36.6508 -78.8981 57° Northeast 477 549 25,000 -2,580 Descending Washington Center
10:53PM 36.7342 -78.7461 56° Northeast 477 549 25,000  Level Washington Center
10:54PM 36.8172 -78.5964 55° Northeast 477 549 25,000  Level Washington Center
10:55PM 36.9036 -78.4803 47° Northeast 451 519 25,000  Level Washington Center
10:56PM 37.0061 -78.3853 36° Northeast 446 513 25,000  Level Washington Center
10:57PM 37.1019 -78.3003 35° Northeast 456 525 25,000  Level Washington Center
10:58PM 37.2019 -78.2044 37° Northeast 456 525 25,000  Level Washington Center
10:59PM 37.3106 -78.1011 37° Northeast 451 519 25,000  Level Washington Center
11:00PM 37.4106 -78.0078 37° Northeast 445 512 25,000  Level Washington Center
11:01PM 37.5083 -77.9139 37° Northeast 445 512 25,000  Level Washington Center
11:02PM 37.6061 -77.8175 38° Northeast 445 512 25,000 -600 Level Washington Center
11:03PM 37.7058 -77.7258 36° Northeast 445 512 23,900 -1,440 Descending Washington Center
11:04PM 37.8014 -77.6339 37° Northeast 440 506 22,200 -2,100 Descending Washington Center
11:05PM 37.8906 -77.5442 38° Northeast 435 501 19,800 -2,400 Descending Washington Center
11:06PM 37.9794 -77.4594 37° Northeast 418 481 17,400 -2,640 Descending Washington Center
11:07PM 38.0661 -77.3825 35° Northeast 397 457 14,600 -2,460 Descending Washington Center
11:08PM 38.1336 -77.3156 38° Northeast 384 442 12,500 -2,280 Descending Washington Center
11:09PM 38.2269 -77.2200 39° Northeast 369 425 10,200 -1,260 Descending Washington Center
11:10PM 38.2944 -77.1553 37° Northeast 333 383 10,000 -840 Descending Washington Center
11:11PM 38.3697 -77.1303 15° North 286 329 8,600 -1,620 Descending Washington Center
11:12PM 38.4453 -77.1053 15° North 280 322 6,800 -1,680 Descending Washington Center
11:13PM 38.5206 -77.0778 16° North 275 316 5,300 -1,440 Descending Washington Center
11:14PM 38.5897 -77.0553 14° North 264 304 4,000 -1,200 Descending Washington Center
11:15PM 38.6544 -77.0458 North 251 289 2,900 -720 Descending Washington Center
11:16PM 38.7333 -77.0333 North 170 196 2,300 -540 Descending Potomac TRACON
11:17PM 38.7667 -77.0333 360° North 154 177 1,600 -780 Descending Potomac TRACON
11:18PM 38.8167 -77.0333 360° North 128 147 800 -840 Descending Potomac TRACON